This is the latest recevied weather packets stored in our database for station/object N0MPM-4. If no packets are shown the sender has not sent any weather packets the latest 10 day(s).
| Time | Temp. | Humidity | Pressure | Rain* | Wind** | Luminosity | Snow |
|---|---|---|---|---|---|---|---|
| 1787886956 | 18.33° C | 46% | 1017.7 hPa | 0 mm | - | - | - |
| 1787886775 | 18.33° C | 47% | 1017.6 hPa | 0 mm | - | - | - |
| 1787886597 | 18.89° C | 49% | 1017.7 hPa | 0 mm | - | - | - |
| 1787886475 | 18.89° C | 48% | 1017.7 hPa | 0 mm | - | - | - |
| 1787886236 | 18.89° C | 46% | 1017.7 hPa | 0 mm | - | - | - |
| 1787886175 | 18.89° C | 45% | 1017.8 hPa | 0 mm | - | - | - |
| 1787885876 | 18.89° C | 49% | 1017.6 hPa | 0 mm | - | - | - |
| 1787885576 | 18.89° C | 49% | 1017.6 hPa | 0 mm | - | - | - |
| 1787885517 | 18.89° C | 48% | 1017.6 hPa | 0 mm | - | - | - |
| 1787885276 | 18.89° C | 49% | 1017.6 hPa | 0 mm | - | - | - |
| 1787885157 | 18.89° C | 53% | 1017.6 hPa | 0 mm | - | - | - |
| 1787884976 | 18.89° C | 58% | 1017.5 hPa | 0 mm | - | - | - |
| 1787884797 | 18.89° C | 58% | 1017.6 hPa | 0 mm | - | - | - |
| 1787884676 | 18.89° C | 57% | 1017.5 hPa | 0 mm | - | - | - |
| 1787884437 | 19.44° C | 55% | 1017.6 hPa | 0 mm | - | - | - |
| 1787884376 | 19.44° C | 55% | 1017.5 hPa | 0 mm | - | - | - |
| 1787884076 | 19.44° C | 54% | 1017.5 hPa | 0 mm | - | - | - |
| 1787883831 | 19.44° C | 58% | 1017.4 hPa | 0 mm | - | - | - |
| 1787883776 | 19.44° C | 57% | 1017.4 hPa | 0 mm | - | - | - |
| 1787883717 | 19.44° C | 58% | 1017.4 hPa | 0 mm | - | - | - |
| 1787883476 | 19.44° C | 61% | 1017.4 hPa | 0 mm | - | - | - |
| 1787883357 | 19.44° C | 61% | 1017.4 hPa | 0 mm | - | - | - |
| 1787883176 | 19.44° C | 62% | 1017.4 hPa | 0 mm | - | - | - |
| 1787883110 | 19.44° C | 64% | 1017.1 hPa | 0 mm | - | - | - |
| 1787882997 | 19.44° C | 62% | 1017.3 hPa | 0 mm | - | - | - |
* Rain latest hour (hover to see other rain measurements)
** Current wind speed in m/s (hover to see current wind gust speed)